createdAt,value
2023-03-22T00:00:01.483Z,13.38
2023-03-22T00:02:33.214Z,13.33
2023-03-22T00:05:02.493Z,13.50
2023-03-22T00:07:31.560Z,13.68
2023-03-22T00:10:01.415Z,13.22
2023-03-22T00:12:31.789Z,13.12
2023-03-22T00:15:09.610Z,13.01
2023-03-22T00:17:39.556Z,13.34
2023-03-22T00:20:16.165Z,13.16
2023-03-22T00:22:46.736Z,13.91
2023-03-22T00:25:15.968Z,13.79
2023-03-22T00:27:44.833Z,13.93
2023-03-22T00:30:17.559Z,13.58
2023-03-22T00:32:47.965Z,13.74
2023-03-22T00:35:19.636Z,13.78
2023-03-22T00:37:51.293Z,13.54
2023-03-22T00:40:21.385Z,13.66
2023-03-22T00:42:55.137Z,13.56
2023-03-22T00:45:23.005Z,13.73
2023-03-22T00:47:59.161Z,13.15
2023-03-22T00:50:29.273Z,13.08
2023-03-22T00:52:57.189Z,13.03
2023-03-22T00:55:26.272Z,12.33
2023-03-22T00:57:56.570Z,12.54
2023-03-22T01:00:29.375Z,12.61
2023-03-22T01:02:59.859Z,12.47
2023-03-22T01:05:30.330Z,12.59
2023-03-22T01:08:02.802Z,12.51
2023-03-22T01:10:30.672Z,12.48
2023-03-22T01:12:58.548Z,12.38
2023-03-22T01:15:27.722Z,12.66
2023-03-22T01:17:57.437Z,12.50
2023-03-22T01:20:25.730Z,12.36
2023-03-22T01:22:55.097Z,12.02
2023-03-22T01:25:23.065Z,11.42
2023-03-22T01:27:52.337Z,12.09
2023-03-22T01:30:21.153Z,11.63
2023-03-22T01:32:49.349Z,12.43
2023-03-22T01:35:19.610Z,11.97
2023-03-22T01:37:52.773Z,12.11
2023-03-22T01:40:23.374Z,10.27
2023-03-22T01:42:51.228Z,11.86
2023-03-22T01:45:34.890Z,11.64
2023-03-22T01:48:05.750Z,11.86
2023-03-22T01:50:34.018Z,11.31
2023-03-22T01:53:07.855Z,11.63
2023-03-22T01:55:42.698Z,11.50
2023-03-22T01:58:12.848Z,12.34
2023-03-22T02:00:43.312Z,12.24
2023-03-22T02:03:12.365Z,12.11
2023-03-22T02:05:42.838Z,12.45
2023-03-22T02:08:15.203Z,12.14
2023-03-22T02:10:46.402Z,12.07
2023-03-22T02:13:27.639Z,12.03
2023-03-22T02:16:03.830Z,12.36
2023-03-22T02:18:55.064Z,11.86
2023-03-22T02:21:38.098Z,10.58
2023-03-22T02:24:47.349Z,11.61
2023-03-22T02:27:32.453Z,11.56
2023-03-22T02:30:21.391Z,11.88
2023-03-22T02:33:10.829Z,11.84
2023-03-22T02:35:44.665Z,11.91
2023-03-22T02:38:57.799Z,11.89
2023-03-22T02:41:31.027Z,11.63
2023-03-22T02:44:06.113Z,11.98
2023-03-22T02:46:38.910Z,12.02
2023-03-22T02:49:12.310Z,11.49
2023-03-22T02:51:44.798Z,11.49
2023-03-22T02:54:21.160Z,11.38
2023-03-22T02:56:54.936Z,11.08
2023-03-22T02:59:23.313Z,11.33
2023-03-22T03:01:58.136Z,9.48
2023-03-22T03:04:32.591Z,11.49
2023-03-22T03:07:07.367Z,11.74
2023-03-22T03:09:36.778Z,11.72
2023-03-22T03:12:15.064Z,11.77
2023-03-22T03:14:48.567Z,11.34
2023-03-22T03:17:30.807Z,11.78
2023-03-22T03:20:22.605Z,11.20
2023-03-22T03:22:57.001Z,11.01
2023-03-22T03:25:32.644Z,11.65
2023-03-22T03:28:04.898Z,12.06
2023-03-22T03:30:39.914Z,12.11
2023-03-22T03:33:12.792Z,12.10
2023-03-22T03:35:42.990Z,12.14
2023-03-22T03:38:14.829Z,12.03
2023-03-22T03:40:52.922Z,12.36
2023-03-22T03:43:33.977Z,12.21
2023-03-22T03:46:02.191Z,12.07
2023-03-22T03:48:33.340Z,11.95
2023-03-22T03:51:02.964Z,12.21
2023-03-22T03:53:31.768Z,12.54
2023-03-22T03:56:06.702Z,12.39
2023-03-22T03:58:35.013Z,12.42
2023-03-22T04:01:04.060Z,12.17
2023-03-22T04:03:32.668Z,12.52
2023-03-22T04:06:01.062Z,12.47
2023-03-22T04:08:28.915Z,11.24
2023-03-22T04:10:57.284Z,12.33
2023-03-22T04:13:29.902Z,11.79
2023-03-22T04:16:02.058Z,12.03
2023-03-22T04:18:31.634Z,12.32
2023-03-22T04:20:59.383Z,11.58
2023-03-22T04:23:28.205Z,11.75
2023-03-22T04:25:59.541Z,12.06
2023-03-22T04:28:30.006Z,11.86
2023-03-22T04:30:57.929Z,12.18
2023-03-22T04:33:26.168Z,12.01
2023-03-22T04:35:56.955Z,11.33
2023-03-22T04:38:26.131Z,11.68
2023-03-22T04:40:53.938Z,11.18
2023-03-22T04:43:27.309Z,11.49
2023-03-22T04:46:00.259Z,11.01
2023-03-22T04:48:28.151Z,11.19
2023-03-22T04:51:04.221Z,11.46
2023-03-22T04:53:32.183Z,11.21
2023-03-22T04:56:00.350Z,11.14
2023-03-22T04:58:31.222Z,11.53
2023-03-22T05:01:05.503Z,10.66
2023-03-22T05:03:33.938Z,10.78
2023-03-22T05:06:03.054Z,10.81
2023-03-22T05:08:32.733Z,9.90
2023-03-22T05:11:07.305Z,10.96
2023-03-22T05:13:36.765Z,11.05
2023-03-22T05:16:07.873Z,11.10
2023-03-22T05:18:40.753Z,11.47
2023-03-22T05:21:15.628Z,11.70
2023-03-22T05:23:43.665Z,11.47
2023-03-22T05:26:18.883Z,10.91
2023-03-22T05:28:49.498Z,11.27
2023-03-22T05:31:23.515Z,11.12
2023-03-22T05:33:54.388Z,11.00
2023-03-22T05:36:24.170Z,10.67
2023-03-22T05:38:53.690Z,11.16
2023-03-22T05:41:32.633Z,11.50
2023-03-22T05:44:01.461Z,11.38
2023-03-22T05:46:34.378Z,11.25
2023-03-22T05:49:03.071Z,10.64
2023-03-22T05:51:31.097Z,11.21
2023-03-22T05:53:58.966Z,11.36
2023-03-22T05:56:27.096Z,11.61
2023-03-22T05:58:54.840Z,11.14
2023-03-22T06:01:23.256Z,11.24
2023-03-22T06:03:55.838Z,11.59
2023-03-22T06:06:23.970Z,11.66
2023-03-22T06:08:52.625Z,11.23
2023-03-22T06:11:22.765Z,10.88
2023-03-22T06:13:52.546Z,11.41
2023-03-22T06:16:21.984Z,10.65
2023-03-22T06:19:01.627Z,11.00
2023-03-22T06:21:34.848Z,11.04
2023-03-22T06:24:03.332Z,11.02
2023-03-22T06:26:39.929Z,11.40
2023-03-22T06:29:08.202Z,11.04
2023-03-22T06:31:36.381Z,10.68
2023-03-22T06:34:05.243Z,11.02
2023-03-22T06:36:34.862Z,11.26
2023-03-22T06:39:05.269Z,10.78
2023-03-22T06:41:35.268Z,11.24
2023-03-22T06:44:03.887Z,11.20
2023-03-22T06:46:32.182Z,10.98
2023-03-22T06:49:00.065Z,11.24
2023-03-22T06:51:28.498Z,11.17
2023-03-22T06:53:59.705Z,11.34
2023-03-22T06:56:31.482Z,11.29
2023-03-22T06:59:00.095Z,11.38
2023-03-22T07:01:29.766Z,11.63
2023-03-22T07:03:57.894Z,11.44
2023-03-22T07:06:26.552Z,11.52
2023-03-22T07:08:55.698Z,11.78
2023-03-22T07:11:27.314Z,11.41
2023-03-22T07:13:55.843Z,11.86
2023-03-22T07:16:24.103Z,12.05
2023-03-22T07:18:51.940Z,11.96
2023-03-22T07:21:20.148Z,11.86
2023-03-22T07:23:52.235Z,12.64
2023-03-22T07:26:22.868Z,12.39
2023-03-22T07:28:59.309Z,12.35
2023-03-22T07:31:29.289Z,12.50
2023-03-22T07:33:57.219Z,12.47
2023-03-22T07:36:25.800Z,12.44
2023-03-22T07:38:56.069Z,12.45
2023-03-22T07:41:30.273Z,12.67
2023-03-22T07:44:17.638Z,12.65
2023-03-22T07:46:57.476Z,12.61
2023-03-22T07:49:25.437Z,12.96
2023-03-22T07:51:53.860Z,13.24
2023-03-22T07:54:32.858Z,13.00
2023-03-22T07:57:08.123Z,12.89
2023-03-22T07:59:40.002Z,13.44
2023-03-22T08:02:10.652Z,13.01
2023-03-22T08:04:38.633Z,13.85
2023-03-22T08:07:10.211Z,14.04
2023-03-22T08:09:38.325Z,14.23
2023-03-22T08:12:07.683Z,14.06
2023-03-22T08:14:38.458Z,14.23
2023-03-22T08:17:09.547Z,13.95
2023-03-22T08:19:37.776Z,14.21
2023-03-22T08:22:08.214Z,14.56
2023-03-22T08:24:36.733Z,14.46
2023-03-22T08:27:04.892Z,14.92
2023-03-22T08:29:33.121Z,14.90
2023-03-22T08:32:09.967Z,14.89
2023-03-22T08:34:38.684Z,14.58
2023-03-22T08:37:11.263Z,13.65
2023-03-22T08:39:39.355Z,14.86
2023-03-22T08:42:10.114Z,15.08
2023-03-22T08:44:40.841Z,15.13
2023-03-22T08:47:13.076Z,14.84
2023-03-22T08:49:43.106Z,15.21
2023-03-22T08:52:14.641Z,14.71
2023-03-22T08:54:42.820Z,15.45
2023-03-22T08:57:11.851Z,15.37
2023-03-22T08:59:44.516Z,15.13
2023-03-22T09:02:14.157Z,15.60
2023-03-22T09:04:42.251Z,16.05
2023-03-22T09:07:10.667Z,16.27
2023-03-22T09:09:41.769Z,15.29
2023-03-22T09:12:10.416Z,15.58
2023-03-22T09:14:40.347Z,16.61
2023-03-22T09:17:08.989Z,16.91
2023-03-22T09:19:39.100Z,16.29
2023-03-22T09:22:07.379Z,15.78
2023-03-22T09:24:36.302Z,15.99
2023-03-22T09:27:10.166Z,16.28
2023-03-22T09:29:38.333Z,16.78
2023-03-22T09:32:07.229Z,16.43
2023-03-22T09:34:37.169Z,16.90
2023-03-22T09:37:09.515Z,16.33
2023-03-22T09:39:41.227Z,16.37
2023-03-22T09:42:19.091Z,16.20
2023-03-22T09:44:48.110Z,15.18
2023-03-22T09:47:26.950Z,16.80
2023-03-22T09:50:01.736Z,16.21
2023-03-22T09:52:34.091Z,17.52
2023-03-22T09:55:05.149Z,16.84
2023-03-22T09:57:37.440Z,17.20
2023-03-22T10:00:17.528Z,17.93
2023-03-22T10:02:53.826Z,18.03
2023-03-22T10:05:32.215Z,18.04
2023-03-22T10:08:25.385Z,16.94
2023-03-22T10:10:53.808Z,17.51
2023-03-22T10:13:26.214Z,17.00
2023-03-22T10:15:55.489Z,16.91
2023-03-22T10:18:29.477Z,17.35
2023-03-22T10:21:02.442Z,17.20
2023-03-22T10:23:35.648Z,17.77
2023-03-22T10:26:06.868Z,18.02
2023-03-22T10:28:40.599Z,18.16
2023-03-22T10:31:14.791Z,18.24
2023-03-22T10:33:53.017Z,18.49
2023-03-22T10:36:24.872Z,19.19
2023-03-22T10:39:00.724Z,19.15
2023-03-22T10:41:33.928Z,18.12
2023-03-22T10:44:07.023Z,18.78
2023-03-22T10:46:38.641Z,19.04
2023-03-22T10:49:07.507Z,18.96
2023-03-22T10:51:38.392Z,19.06
2023-03-22T10:54:26.071Z,19.58
2023-03-22T10:56:54.464Z,18.45
2023-03-22T10:59:45.672Z,17.66
2023-03-22T11:02:20.057Z,17.31
2023-03-22T11:04:50.160Z,17.87
2023-03-22T11:07:30.969Z,17.38
2023-03-22T11:10:24.879Z,17.83
2023-03-22T11:12:56.146Z,17.82
2023-03-22T11:15:28.120Z,16.99
2023-03-22T11:18:00.640Z,17.83
2023-03-22T11:20:30.662Z,18.09
2023-03-22T11:23:05.163Z,18.48
2023-03-22T11:25:39.790Z,18.46
2023-03-22T11:28:15.593Z,18.22
2023-03-22T11:31:03.033Z,19.00
2023-03-22T11:33:36.343Z,18.51
2023-03-22T11:36:09.566Z,19.34
2023-03-22T11:38:39.775Z,19.10
2023-03-22T11:41:21.219Z,19.77
2023-03-22T11:43:52.703Z,19.55
2023-03-22T11:46:26.986Z,19.35
2023-03-22T11:49:01.277Z,19.52
2023-03-22T11:51:31.064Z,18.82
2023-03-22T11:54:08.022Z,19.33
2023-03-22T11:56:41.731Z,19.28
2023-03-22T11:59:16.779Z,17.54
2023-03-22T12:01:49.883Z,19.40
2023-03-22T12:04:20.339Z,19.55
2023-03-22T12:06:49.004Z,19.94
2023-03-22T12:09:26.120Z,19.14
2023-03-22T12:12:00.983Z,19.19
2023-03-22T12:14:32.094Z,19.88
2023-03-22T12:17:06.367Z,19.84
2023-03-22T12:19:48.469Z,19.95
2023-03-22T12:22:21.288Z,19.21
2023-03-22T12:24:49.329Z,20.13
2023-03-22T12:27:22.598Z,19.43
2023-03-22T12:29:54.826Z,18.90
2023-03-22T12:32:25.915Z,19.56
2023-03-22T12:35:05.427Z,19.14
2023-03-22T12:37:44.962Z,19.41
2023-03-22T12:40:22.099Z,19.86
2023-03-22T12:43:00.081Z,19.38
2023-03-22T12:45:30.507Z,20.36
2023-03-22T12:48:03.847Z,19.88
2023-03-22T12:50:35.991Z,20.37
2023-03-22T12:53:04.571Z,21.53
2023-03-22T12:55:34.928Z,22.02
2023-03-22T12:58:09.098Z,22.53
2023-03-22T13:00:44.840Z,22.14
2023-03-22T13:03:27.813Z,20.60
2023-03-22T13:06:05.018Z,20.32
2023-03-22T13:09:10.746Z,20.46
2023-03-22T13:11:40.566Z,20.27
2023-03-22T13:14:23.919Z,19.88
2023-03-22T13:16:54.953Z,20.42
2023-03-22T13:19:34.094Z,20.13
2023-03-22T13:22:35.772Z,20.25
2023-03-22T13:25:15.574Z,20.22
2023-03-22T13:27:55.828Z,21.83
2023-03-22T13:30:31.081Z,21.42
2023-03-22T13:33:08.584Z,21.57
2023-03-22T13:35:46.846Z,21.46
2023-03-22T13:38:22.199Z,21.15
2023-03-22T13:40:58.062Z,20.74
2023-03-22T13:43:33.035Z,20.60
2023-03-22T13:46:46.698Z,20.98
2023-03-22T13:49:46.300Z,20.03
2023-03-22T13:52:26.217Z,21.29
2023-03-22T13:54:55.941Z,21.57
2023-03-22T13:57:50.598Z,20.74
2023-03-22T14:00:39.014Z,21.53
2023-03-22T14:03:16.667Z,21.42
2023-03-22T14:05:47.473Z,20.95
2023-03-22T14:08:24.719Z,20.55
2023-03-22T14:10:58.115Z,21.24
2023-03-22T14:13:33.294Z,20.94
2023-03-22T14:16:09.172Z,20.63
2023-03-22T14:18:44.460Z,19.76
2023-03-22T14:21:15.068Z,19.86
